createdAt,value
2023-02-06T00:01:41.944Z,14.47
2023-02-06T00:04:08.231Z,17.43
2023-02-06T00:06:34.553Z,13.20
2023-02-06T00:09:00.808Z,17.00
2023-02-06T00:11:27.026Z,17.83
2023-02-06T00:13:53.460Z,16.80
2023-02-06T00:16:26.940Z,14.97
2023-02-06T00:18:53.870Z,16.23
2023-02-06T00:21:21.927Z,15.40
2023-02-06T00:23:49.441Z,15.13
2023-02-06T00:26:15.730Z,18.47
2023-02-06T00:28:42.021Z,16.20
2023-02-06T00:31:08.718Z,17.57
2023-02-06T00:33:35.190Z,14.50
2023-02-06T00:36:01.768Z,15.47
2023-02-06T00:38:27.979Z,13.53
2023-02-06T00:40:54.285Z,17.83
2023-02-06T00:43:20.746Z,15.23
2023-02-06T00:45:51.157Z,18.50
2023-02-06T00:48:17.468Z,16.00
2023-02-06T00:50:43.713Z,16.70
2023-02-06T00:53:10.995Z,16.93
2023-02-06T00:55:37.377Z,17.07
2023-02-06T00:58:03.653Z,17.97
2023-02-06T01:00:29.994Z,19.17
2023-02-06T01:02:56.268Z,19.70
2023-02-06T01:05:22.517Z,19.03
2023-02-06T01:07:48.751Z,18.30
2023-02-06T01:10:14.997Z,18.03
2023-02-06T01:12:41.690Z,21.33
2023-02-06T01:15:09.163Z,17.93
2023-02-06T01:17:35.933Z,19.67
2023-02-06T01:20:02.148Z,20.30
2023-02-06T01:22:28.395Z,18.03
2023-02-06T01:24:54.663Z,19.83
2023-02-06T01:27:20.925Z,19.47
2023-02-06T01:29:47.135Z,18.97
2023-02-06T01:32:13.372Z,19.60
2023-02-06T01:34:39.637Z,21.83
2023-02-06T01:37:05.906Z,20.90
2023-02-06T01:39:33.047Z,19.10
2023-02-06T01:41:59.293Z,17.30
2023-02-06T01:44:26.486Z,21.70
2023-02-06T01:46:54.266Z,20.43
2023-02-06T01:49:24.926Z,21.53
2023-02-06T01:51:52.986Z,21.93
2023-02-06T01:54:19.576Z,20.90
2023-02-06T01:56:51.125Z,20.20
2023-02-06T01:59:17.686Z,19.10
2023-02-06T02:01:44.994Z,19.63
2023-02-06T02:04:14.641Z,18.03
2023-02-06T02:06:41.206Z,22.03
2023-02-06T02:09:07.664Z,20.00
2023-02-06T02:11:35.022Z,20.70
2023-02-06T02:14:02.156Z,19.10
2023-02-06T02:16:40.617Z,18.17
2023-02-06T02:19:15.833Z,15.90
2023-02-06T02:21:56.361Z,20.30
2023-02-06T02:24:42.854Z,17.53
2023-02-06T02:27:27.646Z,19.17
2023-02-06T02:29:53.948Z,18.73
2023-02-06T02:32:37.602Z,17.40
2023-02-06T02:35:19.733Z,15.23
2023-02-06T02:37:55.770Z,14.80
2023-02-06T02:40:29.148Z,16.10
2023-02-06T02:43:12.652Z,19.93
2023-02-06T02:45:44.891Z,17.53
2023-02-06T02:48:14.382Z,17.93
2023-02-06T02:50:41.712Z,19.60
2023-02-06T02:53:08.160Z,17.43
2023-02-06T02:55:35.073Z,17.67
2023-02-06T02:58:05.819Z,17.03
2023-02-06T03:00:34.856Z,19.83
2023-02-06T03:03:01.377Z,18.03
2023-02-06T03:05:27.931Z,18.20
2023-02-06T03:08:11.966Z,16.90
2023-02-06T03:10:58.278Z,16.37
2023-02-06T03:13:34.466Z,19.00
2023-02-06T03:16:19.179Z,17.37
2023-02-06T03:19:04.114Z,16.80
2023-02-06T03:21:32.180Z,16.07
2023-02-06T03:24:02.252Z,16.27
2023-02-06T03:26:29.809Z,18.43
2023-02-06T03:28:58.894Z,14.80
2023-02-06T03:31:27.197Z,15.33
2023-02-06T03:33:56.389Z,14.37
2023-02-06T03:36:22.698Z,13.10
2023-02-06T03:38:49.985Z,14.13
2023-02-06T03:41:17.027Z,14.47
2023-02-06T03:43:45.462Z,16.53
2023-02-06T03:46:12.870Z,14.33
2023-02-06T03:48:44.277Z,14.87
2023-02-06T03:51:13.474Z,14.47
2023-02-06T03:53:41.228Z,12.93
2023-02-06T03:56:09.598Z,11.93
2023-02-06T03:58:36.014Z,15.37
2023-02-06T04:01:03.544Z,11.80
2023-02-06T04:03:30.484Z,12.43
2023-02-06T04:05:56.745Z,11.43
2023-02-06T04:08:23.011Z,10.97
2023-02-06T04:10:49.250Z,13.40
2023-02-06T04:13:15.537Z,11.97
2023-02-06T04:15:41.781Z,11.57
2023-02-06T04:18:08.057Z,11.17
2023-02-06T04:20:34.336Z,11.57
2023-02-06T04:23:00.580Z,14.53
2023-02-06T04:25:26.825Z,16.07
2023-02-06T04:27:53.149Z,10.00
2023-02-06T04:30:19.624Z,13.70
2023-02-06T04:32:45.995Z,10.27
2023-02-06T04:35:12.345Z,10.40
2023-02-06T04:37:38.696Z,12.30
2023-02-06T04:40:06.166Z,11.90
2023-02-06T04:42:32.432Z,12.50
2023-02-06T04:44:58.727Z,12.40
2023-02-06T04:47:24.972Z,10.90
2023-02-06T04:49:51.265Z,9.73
2023-02-06T04:52:17.623Z,11.03
2023-02-06T04:54:43.878Z,11.50
2023-02-06T04:57:10.102Z,9.67
2023-02-06T04:59:36.386Z,12.17
2023-02-06T05:02:02.691Z,12.27
2023-02-06T05:04:28.918Z,9.83
2023-02-06T05:06:55.201Z,11.57
2023-02-06T05:09:21.514Z,12.10
2023-02-06T05:11:47.729Z,10.73
2023-02-06T05:14:13.975Z,9.83
2023-02-06T05:16:40.234Z,9.40
2023-02-06T05:19:06.479Z,11.67
2023-02-06T05:21:32.758Z,11.60
2023-02-06T05:23:59.870Z,10.80
2023-02-06T05:26:26.106Z,11.97
2023-02-06T05:28:52.536Z,10.27
2023-02-06T05:31:20.200Z,13.30
2023-02-06T05:33:49.359Z,13.57
2023-02-06T05:36:16.693Z,9.50
2023-02-06T05:38:42.998Z,11.50
2023-02-06T05:41:09.260Z,12.50
2023-02-06T05:43:35.580Z,11.90
2023-02-06T05:46:02.262Z,10.07
2023-02-06T05:48:30.493Z,12.13
2023-02-06T05:50:57.788Z,11.47
2023-02-06T05:53:24.383Z,11.27
2023-02-06T05:55:50.631Z,15.57
2023-02-06T05:58:16.916Z,12.30
2023-02-06T06:00:43.169Z,11.83
2023-02-06T06:03:09.446Z,10.10
2023-02-06T06:05:36.032Z,10.67
2023-02-06T06:08:02.507Z,10.47
2023-02-06T06:10:28.848Z,11.97
2023-02-06T06:12:55.162Z,13.50
2023-02-06T06:15:21.407Z,13.10
2023-02-06T06:17:47.647Z,12.63
2023-02-06T06:20:14.019Z,11.10
2023-02-06T06:22:40.274Z,12.23
2023-02-06T06:25:06.871Z,15.53
2023-02-06T06:27:33.353Z,12.30
2023-02-06T06:29:59.642Z,13.77
2023-02-06T06:32:25.854Z,13.33
2023-02-06T06:34:52.089Z,12.87
2023-02-06T06:37:18.369Z,15.53
2023-02-06T06:39:44.613Z,16.00
2023-02-06T06:42:10.842Z,14.60
2023-02-06T06:44:37.150Z,12.17
2023-02-06T06:47:03.469Z,12.87
2023-02-06T06:49:29.742Z,15.13
2023-02-06T06:51:55.968Z,14.20
2023-02-06T06:54:22.826Z,15.00
2023-02-06T06:56:49.060Z,12.20
2023-02-06T06:59:15.391Z,14.13
2023-02-06T07:01:41.633Z,14.70
2023-02-06T07:04:07.996Z,15.17
2023-02-06T07:06:34.234Z,13.83
2023-02-06T07:09:00.465Z,14.30
2023-02-06T07:11:26.786Z,14.93
2023-02-06T07:13:53.126Z,12.70
2023-02-06T07:16:20.361Z,13.90
2023-02-06T07:18:47.374Z,17.27
2023-02-06T07:21:15.843Z,12.03
2023-02-06T07:23:42.147Z,14.60
2023-02-06T07:26:08.459Z,17.53
2023-02-06T07:28:34.765Z,19.87
2023-02-06T07:31:01.807Z,15.43
2023-02-06T07:33:28.301Z,16.90
2023-02-06T07:35:54.566Z,14.83
2023-02-06T07:38:21.033Z,18.27
2023-02-06T07:40:47.259Z,16.77
2023-02-06T07:43:13.826Z,16.93
2023-02-06T07:45:40.192Z,16.70
2023-02-06T07:48:06.856Z,16.27
2023-02-06T07:50:33.156Z,15.80
2023-02-06T07:52:59.393Z,15.03
2023-02-06T07:55:25.817Z,15.87
2023-02-06T07:57:52.105Z,17.23
2023-02-06T08:00:18.470Z,18.67
2023-02-06T08:02:44.722Z,15.90
2023-02-06T08:05:10.948Z,14.83
2023-02-06T08:07:37.203Z,14.83
2023-02-06T08:10:03.549Z,15.43
2023-02-06T08:12:29.898Z,16.63
2023-02-06T08:14:56.337Z,16.50
2023-02-06T08:17:22.601Z,15.90
2023-02-06T08:19:48.892Z,16.33
2023-02-06T08:22:15.101Z,18.80
2023-02-06T08:24:41.343Z,14.53
2023-02-06T08:27:07.561Z,16.20
2023-02-06T08:29:40.348Z,16.93
2023-02-06T08:32:06.578Z,16.00
2023-02-06T08:34:33.349Z,19.17
2023-02-06T08:36:59.565Z,15.90
2023-02-06T08:39:25.777Z,17.00
2023-02-06T08:41:52.072Z,18.47
2023-02-06T08:44:19.429Z,19.13
2023-02-06T08:46:46.444Z,24.30
2023-02-06T08:49:19.946Z,17.53
2023-02-06T08:51:46.745Z,20.77
2023-02-06T08:54:18.837Z,19.90
2023-02-06T08:56:45.476Z,19.70
2023-02-06T08:59:12.522Z,17.77
2023-02-06T09:01:38.989Z,28.13
2023-02-06T09:04:06.495Z,17.77
2023-02-06T09:06:34.104Z,22.50
2023-02-06T09:09:00.428Z,19.73
2023-02-06T09:11:27.180Z,24.83
2023-02-06T09:13:55.987Z,23.77
2023-02-06T09:16:22.653Z,24.77
2023-02-06T09:18:50.014Z,32.73
2023-02-06T09:21:20.868Z,24.50
2023-02-06T09:23:48.920Z,25.63
2023-02-06T09:26:16.075Z,30.07
2023-02-06T09:28:42.821Z,29.47
2023-02-06T09:31:09.742Z,30.40
2023-02-06T09:33:37.602Z,34.80
2023-02-06T09:36:05.676Z,30.67
2023-02-06T09:38:32.221Z,32.60
2023-02-06T09:41:00.508Z,34.07
2023-02-06T09:43:27.323Z,30.90
2023-02-06T09:45:59.381Z,28.93
2023-02-06T09:48:27.257Z,32.93
2023-02-06T09:51:04.147Z,34.17
2023-02-06T09:53:42.958Z,34.13
2023-02-06T09:56:14.394Z,28.93
2023-02-06T09:58:48.732Z,33.83
2023-02-06T10:01:34.669Z,30.23
2023-02-06T10:04:25.021Z,27.80
2023-02-06T10:06:55.818Z,29.70
2023-02-06T10:09:29.139Z,29.07
2023-02-06T10:12:01.416Z,30.60
2023-02-06T10:14:51.015Z,40.37
2023-02-06T10:17:23.229Z,30.13
2023-02-06T10:20:08.182Z,25.67
2023-02-06T10:22:38.911Z,31.20
2023-02-06T10:25:27.965Z,28.87
2023-02-06T10:27:59.075Z,27.17
2023-02-06T10:30:45.744Z,21.80
2023-02-06T10:33:25.318Z,28.27
2023-02-06T10:36:10.692Z,22.37
2023-02-06T10:38:46.173Z,26.67
2023-02-06T10:41:12.365Z,21.10
2023-02-06T10:43:48.614Z,22.30
2023-02-06T10:46:41.077Z,23.23
2023-02-06T10:49:10.718Z,24.77
2023-02-06T10:51:44.420Z,22.33
2023-02-06T10:54:15.455Z,23.30
2023-02-06T10:56:44.462Z,21.80
2023-02-06T10:59:18.440Z,23.27
2023-02-06T11:01:47.068Z,22.30
2023-02-06T11:04:15.402Z,21.20
2023-02-06T11:06:42.534Z,21.27
2023-02-06T11:09:09.541Z,23.03
2023-02-06T11:11:44.122Z,22.53
2023-02-06T11:14:24.740Z,25.23
2023-02-06T11:16:51.363Z,24.80
2023-02-06T11:19:20.557Z,24.37
2023-02-06T11:21:50.849Z,23.77
2023-02-06T11:24:18.073Z,24.87
2023-02-06T11:27:10.852Z,23.43
2023-02-06T11:29:43.270Z,30.03
2023-02-06T11:32:24.636Z,27.60
2023-02-06T11:34:53.521Z,26.73
2023-02-06T11:37:32.306Z,28.43
2023-02-06T11:40:17.113Z,22.37
2023-02-06T11:42:44.155Z,28.97
2023-02-06T11:45:22.454Z,27.50
2023-02-06T11:47:48.934Z,29.03
2023-02-06T11:50:23.916Z,28.17
2023-02-06T11:52:55.745Z,28.07
2023-02-06T11:55:27.277Z,32.60
2023-02-06T11:58:10.227Z,31.70
2023-02-06T12:00:37.984Z,30.53
2023-02-06T12:03:04.803Z,30.83
2023-02-06T12:05:38.018Z,33.57
2023-02-06T12:08:10.043Z,28.77
2023-02-06T12:10:38.816Z,33.13
2023-02-06T12:13:08.207Z,34.60
2023-02-06T12:15:46.719Z,32.27
2023-02-06T12:18:15.838Z,29.83
2023-02-06T12:20:48.817Z,28.93
2023-02-06T12:23:27.101Z,29.80
2023-02-06T12:25:56.091Z,30.60
2023-02-06T12:28:45.342Z,31.63
2023-02-06T12:31:35.018Z,31.37
2023-02-06T12:34:12.532Z,30.23
2023-02-06T12:36:54.672Z,29.77
2023-02-06T12:39:22.162Z,29.43
2023-02-06T12:41:56.016Z,26.00
2023-02-06T12:44:30.087Z,28.53
2023-02-06T12:47:11.335Z,25.27
2023-02-06T12:49:44.139Z,30.37
2023-02-06T12:52:16.595Z,24.67
2023-02-06T12:54:47.760Z,28.77
2023-02-06T12:57:15.985Z,25.87
2023-02-06T12:59:56.728Z,22.60
2023-02-06T13:02:40.173Z,21.93
2023-02-06T13:05:15.695Z,23.37
2023-02-06T13:07:49.421Z,23.90
2023-02-06T13:10:20.025Z,24.33
2023-02-06T13:13:12.834Z,26.33
2023-02-06T13:15:40.391Z,23.37
2023-02-06T13:18:25.462Z,24.53
2023-02-06T13:21:13.324Z,23.50
2023-02-06T13:23:48.662Z,25.80
2023-02-06T13:26:14.892Z,25.77
2023-02-06T13:28:41.902Z,25.00
2023-02-06T13:31:22.328Z,26.60
2023-02-06T13:33:52.108Z,22.10
2023-02-06T13:36:24.338Z,24.53
2023-02-06T13:38:54.288Z,25.53
2023-02-06T13:41:28.708Z,24.30
2023-02-06T13:43:57.020Z,23.70
2023-02-06T13:46:31.211Z,31.30
2023-02-06T13:49:25.236Z,27.67
2023-02-06T13:52:10.041Z,26.23
2023-02-06T13:54:55.782Z,25.20
2023-02-06T13:57:25.177Z,23.40
2023-02-06T14:00:18.028Z,23.53
2023-02-06T14:02:47.484Z,30.77
2023-02-06T14:05:21.413Z,28.63
2023-02-06T14:08:04.463Z,29.73
2023-02-06T14:10:56.836Z,27.07
2023-02-06T14:13:34.343Z,27.73
2023-02-06T14:16:12.298Z,26.50
2023-02-06T14:18:44.046Z,33.13
2023-02-06T14:21:21.707Z,30.67
2023-02-06T14:24:03.813Z,29.23
2023-02-06T14:26:41.537Z,31.67
2023-02-06T14:29:44.634Z,30.50
2023-02-06T14:32:32.578Z,30.93
2023-02-06T14:35:08.296Z,27.93
2023-02-06T14:37:52.630Z,30.37
2023-02-06T14:40:21.049Z,29.30
2023-02-06T14:42:48.510Z,28.63
2023-02-06T14:45:14.735Z,31.53
2023-02-06T14:47:43.052Z,31.47
2023-02-06T14:50:26.869Z,24.10
2023-02-06T14:52:59.770Z,30.00
2023-02-06T14:55:37.091Z,30.10
2023-02-06T14:58:04.289Z,25.13
2023-02-06T15:00:31.105Z,22.37
2023-02-06T15:03:15.093Z,28.20
2023-02-06T15:05:41.413Z,29.63
2023-02-06T15:08:07.712Z,26.40
2023-02-06T15:10:35.762Z,24.87
2023-02-06T15:13:02.637Z,25.40
2023-02-06T15:15:30.493Z,24.50
2023-02-06T15:18:07.680Z,22.97
2023-02-06T15:20:40.185Z,33.60
2023-02-06T15:23:17.821Z,25.53
2023-02-06T15:25:47.736Z,25.30
2023-02-06T15:28:18.755Z,21.43
2023-02-06T15:30:45.236Z,23.27
2023-02-06T15:33:14.275Z,26.20
2023-02-06T15:35:41.346Z,23.43
2023-02-06T15:38:10.657Z,22.40
2023-02-06T15:40:39.058Z,22.47
2023-02-06T15:43:05.671Z,21.27
2023-02-06T15:45:35.662Z,21.23
2023-02-06T15:48:19.512Z,23.00
2023-02-06T15:51:00.263Z,21.33
2023-02-06T15:53:31.612Z,22.10
2023-02-06T15:55:58.523Z,21.07
2023-02-06T15:58:25.347Z,22.10
2023-02-06T16:00:56.329Z,28.60
2023-02-06T16:03:24.268Z,21.00
2023-02-06T16:05:51.316Z,22.43
2023-02-06T16:08:20.366Z,26.37
2023-02-06T16:10:51.202Z,23.70
2023-02-06T16:13:19.684Z,24.67
2023-02-06T16:16:01.806Z,24.47
2023-02-06T16:18:32.951Z,22.67
2023-02-06T16:21:17.674Z,24.37
2023-02-06T16:23:45.433Z,20.33
2023-02-06T16:26:14.943Z,25.57
2023-02-06T16:28:48.031Z,24.13
2023-02-06T16:31:15.184Z,19.97
2023-02-06T16:33:45.632Z,25.23
2023-02-06T16:36:12.860Z,21.83
2023-02-06T16:38:43.131Z,23.67
2023-02-06T16:41:23.539Z,21.33
2023-02-06T16:43:50.405Z,21.40
2023-02-06T16:46:18.131Z,22.33
2023-02-06T16:48:44.403Z,23.60
2023-02-06T16:51:18.405Z,23.60
2023-02-06T16:53:45.415Z,24.30
2023-02-06T16:56:12.897Z,27.83
2023-02-06T16:58:39.511Z,21.00
2023-02-06T17:01:08.447Z,29.67
2023-02-06T17:03:34.784Z,23.67
2023-02-06T17:06:01.053Z,26.07
2023-02-06T17:08:27.298Z,20.20
2023-02-06T17:10:53.585Z,26.73
2023-02-06T17:13:21.090Z,23.83
2023-02-06T17:15:47.989Z,28.33
2023-02-06T17:18:16.366Z,24.40
2023-02-06T17:20:43.746Z,22.90
2023-02-06T17:23:14.235Z,23.87
2023-02-06T17:25:41.540Z,21.97
2023-02-06T17:28:09.058Z,22.60
2023-02-06T17:30:36.362Z,24.00
2023-02-06T17:33:02.811Z,24.00
2023-02-06T17:35:29.126Z,24.20
2023-02-06T17:37:55.418Z,28.07
2023-02-06T17:40:23.444Z,22.17
2023-02-06T17:42:50.146Z,27.13
2023-02-06T17:45:16.449Z,33.47
2023-02-06T17:47:42.827Z,31.07
2023-02-06T17:50:11.429Z,26.40
2023-02-06T17:52:37.683Z,28.77
2023-02-06T17:55:04.087Z,27.33
2023-02-06T17:57:30.790Z,27.33
2023-02-06T17:59:57.208Z,25.13
2023-02-06T18:02:23.770Z,26.23
2023-02-06T18:04:50.627Z,28.10
2023-02-06T18:07:16.936Z,25.50
2023-02-06T18:09:43.290Z,27.00
2023-02-06T18:12:09.976Z,23.80
2023-02-06T18:14:36.226Z,26.40
2023-02-06T18:17:05.436Z,25.97
2023-02-06T18:19:32.049Z,28.03
2023-02-06T18:21:58.303Z,29.17
2023-02-06T18:24:24.534Z,26.53
2023-02-06T18:26:50.766Z,25.93
2023-02-06T18:29:17.014Z,26.87
2023-02-06T18:31:43.356Z,31.53
2023-02-06T18:34:10.184Z,28.77
2023-02-06T18:36:37.614Z,26.77
2023-02-06T18:39:04.787Z,25.97
2023-02-06T18:41:49.544Z,28.07
2023-02-06T18:44:15.819Z,30.93
2023-02-06T18:46:42.076Z,28.47
2023-02-06T18:49:08.366Z,33.00
2023-02-06T18:51:34.602Z,28.77
2023-02-06T18:54:00.908Z,27.73
2023-02-06T18:56:27.532Z,29.90
2023-02-06T18:58:53.798Z,31.40
2023-02-06T19:01:21.653Z,28.53
2023-02-06T19:03:48.259Z,27.87
2023-02-06T19:06:18.940Z,30.87
2023-02-06T19:08:46.710Z,33.43
2023-02-06T19:11:13.517Z,27.17
2023-02-06T19:13:40.610Z,32.03
2023-02-06T19:16:08.679Z,33.77
2023-02-06T19:18:38.296Z,36.20
2023-02-06T19:21:07.847Z,33.40
2023-02-06T19:23:36.079Z,30.87
2023-02-06T19:26:04.733Z,32.10
2023-02-06T19:28:31.437Z,29.27
2023-02-06T19:30:59.669Z,32.03
2023-02-06T19:33:25.913Z,30.90
2023-02-06T19:35:52.299Z,27.80
2023-02-06T19:38:18.689Z,29.00
2023-02-06T19:40:47.205Z,30.17
2023-02-06T19:43:14.242Z,29.47
2023-02-06T19:45:40.544Z,30.93
2023-02-06T19:48:11.908Z,30.53
2023-02-06T19:50:39.099Z,33.30
2023-02-06T19:53:05.738Z,31.57
2023-02-06T19:55:32.606Z,27.20
2023-02-06T19:58:00.010Z,30.20
2023-02-06T20:00:26.877Z,33.10
2023-02-06T20:02:53.138Z,31.80
2023-02-06T20:05:25.886Z,33.17
2023-02-06T20:07:53.725Z,33.33
2023-02-06T20:10:23.067Z,31.97
2023-02-06T20:12:50.804Z,30.03
2023-02-06T20:15:17.102Z,32.30
2023-02-06T20:17:43.409Z,38.67
2023-02-06T20:20:10.383Z,30.30
2023-02-06T20:22:36.640Z,34.50
2023-02-06T20:25:02.922Z,34.20
2023-02-06T20:27:29.137Z,30.67
2023-02-06T20:29:55.426Z,31.73
2023-02-06T20:32:22.712Z,30.87
2023-02-06T20:34:48.977Z,29.70
2023-02-06T20:37:17.592Z,28.17
2023-02-06T20:39:43.839Z,28.27
2023-02-06T20:42:10.059Z,33.27
2023-02-06T20:44:36.289Z,30.63
2023-02-06T20:47:02.555Z,32.77
2023-02-06T20:49:31.128Z,30.17
2023-02-06T20:51:57.602Z,28.77
2023-02-06T20:54:24.034Z,31.80
2023-02-06T20:56:50.591Z,34.40
2023-02-06T20:59:19.717Z,36.70
2023-02-06T21:01:46.060Z,29.50
2023-02-06T21:04:13.156Z,32.37
2023-02-06T21:06:39.808Z,30.87
2023-02-06T21:09:07.221Z,36.23
2023-02-06T21:11:35.185Z,31.43
2023-02-06T21:14:02.378Z,33.70
2023-02-06T21:16:29.680Z,34.80
2023-02-06T21:18:57.267Z,36.37
2023-02-06T21:21:23.754Z,35.10
2023-02-06T21:23:50.057Z,38.30
2023-02-06T21:26:17.879Z,32.90
2023-02-06T21:28:45.154Z,35.23
2023-02-06T21:31:16.312Z,34.50
2023-02-06T21:33:42.948Z,32.73
2023-02-06T21:36:09.258Z,35.33
2023-02-06T21:38:35.966Z,36.03
2023-02-06T21:41:06.134Z,35.17
2023-02-06T21:43:32.841Z,38.27
2023-02-06T21:45:59.160Z,37.50
2023-02-06T21:48:25.508Z,36.97
2023-02-06T21:50:51.731Z,40.73
2023-02-06T21:53:18.118Z,39.57
2023-02-06T21:55:44.805Z,40.73
2023-02-06T21:58:14.486Z,40.10
2023-02-06T22:00:45.233Z,37.97
2023-02-06T22:03:12.266Z,37.13
2023-02-06T22:05:38.923Z,38.47
2023-02-06T22:08:05.586Z,41.13
2023-02-06T22:10:34.377Z,37.57
2023-02-06T22:13:00.651Z,38.30
2023-02-06T22:15:26.865Z,37.57
2023-02-06T22:17:53.098Z,33.23
2023-02-06T22:20:19.393Z,35.37
2023-02-06T22:22:46.374Z,38.67
2023-02-06T22:25:12.690Z,42.53
2023-02-06T22:27:38.978Z,37.33
2023-02-06T22:30:06.137Z,34.70
2023-02-06T22:32:35.480Z,38.87
2023-02-06T22:35:01.748Z,34.47
2023-02-06T22:37:29.990Z,36.90
2023-02-06T22:39:56.216Z,36.13
2023-02-06T22:42:22.924Z,35.10
2023-02-06T22:44:49.519Z,33.50
2023-02-06T22:47:16.081Z,41.87
2023-02-06T22:49:42.591Z,36.00
2023-02-06T22:52:29.130Z,37.47
2023-02-06T22:54:55.552Z,36.10
2023-02-06T22:57:21.860Z,34.90
2023-02-06T22:59:48.090Z,37.77
2023-02-06T23:02:14.343Z,34.83
2023-02-06T23:04:40.713Z,39.03
2023-02-06T23:07:07.222Z,34.83
2023-02-06T23:09:35.323Z,39.27
2023-02-06T23:12:02.077Z,38.63
2023-02-06T23:14:29.366Z,38.03
2023-02-06T23:16:55.664Z,36.87
2023-02-06T23:19:21.932Z,33.33
2023-02-06T23:21:49.295Z,39.77
2023-02-06T23:24:15.677Z,33.37
2023-02-06T23:26:43.127Z,33.17
2023-02-06T23:29:10.460Z,34.40
2023-02-06T23:31:36.735Z,33.70
2023-02-06T23:34:03.255Z,34.87
2023-02-06T23:36:29.609Z,33.63
2023-02-06T23:38:55.863Z,35.03
2023-02-06T23:41:27.940Z,37.67
2023-02-06T23:43:55.675Z,35.17
2023-02-06T23:46:22.439Z,28.83
2023-02-06T23:48:48.925Z,33.63
2023-02-06T23:51:15.449Z,33.07
2023-02-06T23:53:42.157Z,33.93
2023-02-06T23:56:12.520Z,32.70
2023-02-06T23:58:39.038Z,33.90
